sensor_id;sensor_type;location;lat;lon;timestamp;P1;durP1;ratioP1;P2;durP2;ratioP2
13457;SDS011;6801;53.018;11.560;2023-04-25T00:01:08;6.45;;;1.60;;
13457;SDS011;6801;53.018;11.560;2023-04-25T00:03:38;7.93;;;1.60;;
13457;SDS011;6801;53.018;11.560;2023-04-25T00:06:05;5.60;;;1.02;;
13457;SDS011;6801;53.018;11.560;2023-04-25T00:08:34;4.03;;;1.13;;
13457;SDS011;6801;53.018;11.560;2023-04-25T00:11:01;5.22;;;1.85;;
13457;SDS011;6801;53.018;11.560;2023-04-25T00:13:28;6.00;;;1.60;;
13457;SDS011;6801;53.018;11.560;2023-04-25T00:15:54;5.68;;;2.22;;
13457;SDS011;6801;53.018;11.560;2023-04-25T00:18:23;6.00;;;1.50;;
13457;SDS011;6801;53.018;11.560;2023-04-25T00:20:50;7.30;;;1.95;;
13457;SDS011;6801;53.018;11.560;2023-04-25T00:23:17;5.75;;;1.80;;
13457;SDS011;6801;53.018;11.560;2023-04-25T00:25:46;12.70;;;1.50;;
13457;SDS011;6801;53.018;11.560;2023-04-25T00:28:14;5.18;;;2.03;;
13457;SDS011;6801;53.018;11.560;2023-04-25T00:30:42;5.25;;;1.50;;
13457;SDS011;6801;53.018;11.560;2023-04-25T00:33:09;7.13;;;1.73;;
13457;SDS011;6801;53.018;11.560;2023-04-25T00:35:36;4.65;;;1.48;;
13457;SDS011;6801;53.018;11.560;2023-04-25T00:38:04;6.93;;;1.95;;
13457;SDS011;6801;53.018;11.560;2023-04-25T00:40:31;9.23;;;1.98;;
13457;SDS011;6801;53.018;11.560;2023-04-25T00:42:59;4.20;;;1.40;;
13457;SDS011;6801;53.018;11.560;2023-04-25T00:45:27;4.47;;;1.75;;
13457;SDS011;6801;53.018;11.560;2023-04-25T00:47:55;4.20;;;1.95;;
13457;SDS011;6801;53.018;11.560;2023-04-25T00:50:22;5.70;;;1.80;;
13457;SDS011;6801;53.018;11.560;2023-04-25T00:52:49;5.03;;;1.80;;
13457;SDS011;6801;53.018;11.560;2023-04-25T00:55:17;4.43;;;1.42;;
13457;SDS011;6801;53.018;11.560;2023-04-25T00:57:44;5.18;;;1.85;;
13457;SDS011;6801;53.018;11.560;2023-04-25T01:00:13;4.18;;;1.80;;
13457;SDS011;6801;53.018;11.560;2023-04-25T01:02:41;6.50;;;1.90;;
13457;SDS011;6801;53.018;11.560;2023-04-25T01:05:08;7.50;;;1.85;;
13457;SDS011;6801;53.018;11.560;2023-04-25T01:07:35;5.03;;;1.77;;
13457;SDS011;6801;53.018;11.560;2023-04-25T01:10:02;6.57;;;2.10;;
13457;SDS011;6801;53.018;11.560;2023-04-25T01:12:31;8.68;;;2.13;;
13457;SDS011;6801;53.018;11.560;2023-04-25T01:14:58;3.53;;;1.88;;
13457;SDS011;6801;53.018;11.560;2023-04-25T01:17:27;5.70;;;2.40;;
13457;SDS011;6801;53.018;11.560;2023-04-25T01:19:54;6.57;;;1.90;;
13457;SDS011;6801;53.018;11.560;2023-04-25T01:22:22;5.30;;;1.65;;
13457;SDS011;6801;53.018;11.560;2023-04-25T01:24:50;4.10;;;1.90;;
13457;SDS011;6801;53.018;11.560;2023-04-25T01:27:17;8.15;;;1.80;;
13457;SDS011;6801;53.018;11.560;2023-04-25T01:29:46;8.55;;;2.33;;
13457;SDS011;6801;53.018;11.560;2023-04-25T01:32:13;7.18;;;1.85;;
13457;SDS011;6801;53.018;11.560;2023-04-25T01:34:40;5.30;;;2.00;;
13457;SDS011;6801;53.018;11.560;2023-04-25T01:37:07;5.50;;;2.22;;
13457;SDS011;6801;53.018;11.560;2023-04-25T01:39:36;5.70;;;1.95;;
13457;SDS011;6801;53.018;11.560;2023-04-25T01:42:03;5.88;;;1.90;;
13457;SDS011;6801;53.018;11.560;2023-04-25T01:44:30;8.10;;;2.03;;
13457;SDS011;6801;53.018;11.560;2023-04-25T01:46:57;7.95;;;2.17;;
13457;SDS011;6801;53.018;11.560;2023-04-25T01:49:25;4.50;;;2.22;;
13457;SDS011;6801;53.018;11.560;2023-04-25T01:51:52;7.40;;;2.25;;
13457;SDS011;6801;53.018;11.560;2023-04-25T01:54:20;6.53;;;1.75;;
13457;SDS011;6801;53.018;11.560;2023-04-25T01:56:51;4.25;;;2.00;;
13457;SDS011;6801;53.018;11.560;2023-04-25T01:59:19;7.72;;;2.53;;
13457;SDS011;6801;53.018;11.560;2023-04-25T02:02:15;8.05;;;2.17;;
13457;SDS011;6801;53.018;11.560;2023-04-25T02:04:42;4.75;;;1.55;;
13457;SDS011;6801;53.018;11.560;2023-04-25T02:07:09;3.88;;;1.35;;
13457;SDS011;6801;53.018;11.560;2023-04-25T02:09:46;6.80;;;2.50;;
13457;SDS011;6801;53.018;11.560;2023-04-25T02:12:14;6.10;;;1.88;;
13457;SDS011;6801;53.018;11.560;2023-04-25T02:15:00;8.38;;;2.53;;
13457;SDS011;6801;53.018;11.560;2023-04-25T02:17:36;6.43;;;2.17;;
13457;SDS011;6801;53.018;11.560;2023-04-25T02:20:05;4.47;;;1.58;;
13457;SDS011;6801;53.018;11.560;2023-04-25T02:22:32;7.97;;;2.10;;
13457;SDS011;6801;53.018;11.560;2023-04-25T02:25:00;9.45;;;2.25;;
13457;SDS011;6801;53.018;11.560;2023-04-25T02:27:31;3.40;;;1.52;;
13457;SDS011;6801;53.018;11.560;2023-04-25T02:29:58;6.32;;;2.28;;
13457;SDS011;6801;53.018;11.560;2023-04-25T02:32:25;4.65;;;1.73;;
13457;SDS011;6801;53.018;11.560;2023-04-25T02:34:52;5.43;;;1.75;;
13457;SDS011;6801;53.018;11.560;2023-04-25T02:37:19;4.72;;;1.60;;
13457;SDS011;6801;53.018;11.560;2023-04-25T02:39:46;6.78;;;1.88;;
13457;SDS011;6801;53.018;11.560;2023-04-25T02:42:13;6.93;;;1.92;;
13457;SDS011;6801;53.018;11.560;2023-04-25T02:44:41;6.93;;;1.90;;
13457;SDS011;6801;53.018;11.560;2023-04-25T02:47:08;6.45;;;1.83;;
13457;SDS011;6801;53.018;11.560;2023-04-25T02:49:35;4.95;;;1.52;;
13457;SDS011;6801;53.018;11.560;2023-04-25T02:52:02;4.35;;;1.80;;
13457;SDS011;6801;53.018;11.560;2023-04-25T02:54:29;7.10;;;1.83;;
13457;SDS011;6801;53.018;11.560;2023-04-25T02:56:57;6.03;;;1.88;;
13457;SDS011;6801;53.018;11.560;2023-04-25T02:59:28;5.68;;;1.42;;
13457;SDS011;6801;53.018;11.560;2023-04-25T03:01:56;3.88;;;1.55;;
13457;SDS011;6801;53.018;11.560;2023-04-25T03:04:23;3.85;;;1.75;;
13457;SDS011;6801;53.018;11.560;2023-04-25T03:06:50;5.03;;;1.55;;
13457;SDS011;6801;53.018;11.560;2023-04-25T03:09:20;5.40;;;2.13;;
13457;SDS011;6801;53.018;11.560;2023-04-25T03:11:47;6.07;;;1.92;;
13457;SDS011;6801;53.018;11.560;2023-04-25T03:14:14;6.32;;;2.15;;
13457;SDS011;6801;53.018;11.560;2023-04-25T03:16:41;8.23;;;2.20;;
13457;SDS011;6801;53.018;11.560;2023-04-25T03:19:10;5.57;;;2.25;;
13457;SDS011;6801;53.018;11.560;2023-04-25T03:21:37;8.20;;;2.22;;
13457;SDS011;6801;53.018;11.560;2023-04-25T03:24:04;7.38;;;2.22;;
13457;SDS011;6801;53.018;11.560;2023-04-25T03:26:31;5.68;;;1.70;;
13457;SDS011;6801;53.018;11.560;2023-04-25T03:28:59;4.18;;;2.05;;
13457;SDS011;6801;53.018;11.560;2023-04-25T03:31:26;4.30;;;2.10;;
13457;SDS011;6801;53.018;11.560;2023-04-25T03:33:53;6.15;;;2.08;;
13457;SDS011;6801;53.018;11.560;2023-04-25T03:36:23;10.70;;;2.13;;
13457;SDS011;6801;53.018;11.560;2023-04-25T03:38:50;4.55;;;2.33;;
13457;SDS011;6801;53.018;11.560;2023-04-25T03:41:19;3.15;;;1.27;;
13457;SDS011;6801;53.018;11.560;2023-04-25T03:43:56;7.13;;;2.47;;
13457;SDS011;6801;53.018;11.560;2023-04-25T03:46:23;7.32;;;1.92;;
13457;SDS011;6801;53.018;11.560;2023-04-25T03:48:50;9.73;;;4.50;;
13457;SDS011;6801;53.018;11.560;2023-04-25T03:53:49;11.35;;;2.40;;
13457;SDS011;6801;53.018;11.560;2023-04-25T03:56:19;6.93;;;2.05;;
13457;SDS011;6801;53.018;11.560;2023-04-25T03:58:53;19.48;;;3.05;;
13457;SDS011;6801;53.018;11.560;2023-04-25T04:01:22;10.15;;;2.40;;
13457;SDS011;6801;53.018;11.560;2023-04-25T04:03:49;9.57;;;1.77;;
13457;SDS011;6801;53.018;11.560;2023-04-25T04:06:16;6.47;;;1.95;;
13457;SDS011;6801;53.018;11.560;2023-04-25T04:08:47;10.25;;;2.25;;
13457;SDS011;6801;53.018;11.560;2023-04-25T04:11:16;12.25;;;2.78;;
13457;SDS011;6801;53.018;11.560;2023-04-25T04:13:42;11.95;;;2.67;;
13457;SDS011;6801;53.018;11.560;2023-04-25T04:16:09;23.55;;;6.65;;
13457;SDS011;6801;53.018;11.560;2023-04-25T04:18:36;14.32;;;3.17;;
13457;SDS011;6801;53.018;11.560;2023-04-25T04:21:03;17.08;;;3.00;;
13457;SDS011;6801;53.018;11.560;2023-04-25T04:23:33;13.17;;;2.80;;
13457;SDS011;6801;53.018;11.560;2023-04-25T04:26:01;12.98;;;2.80;;
13457;SDS011;6801;53.018;11.560;2023-04-25T04:28:40;9.50;;;2.30;;
13457;SDS011;6801;53.018;11.560;2023-04-25T04:31:21;16.48;;;2.47;;
13457;SDS011;6801;53.018;11.560;2023-04-25T04:33:49;17.52;;;4.35;;
13457;SDS011;6801;53.018;11.560;2023-04-25T04:36:17;20.85;;;3.17;;
13457;SDS011;6801;53.018;11.560;2023-04-25T04:38:47;18.23;;;2.80;;
13457;SDS011;6801;53.018;11.560;2023-04-25T04:41:32;17.88;;;2.58;;
13457;SDS011;6801;53.018;11.560;2023-04-25T04:44:10;20.88;;;2.97;;
13457;SDS011;6801;53.018;11.560;2023-04-25T04:46:44;17.30;;;3.70;;
13457;SDS011;6801;53.018;11.560;2023-04-25T04:49:32;15.23;;;3.65;;
13457;SDS011;6801;53.018;11.560;2023-04-25T04:52:25;17.77;;;3.40;;
13457;SDS011;6801;53.018;11.560;2023-04-25T04:55:00;13.93;;;2.83;;
13457;SDS011;6801;53.018;11.560;2023-04-25T04:57:43;13.68;;;2.40;;
13457;SDS011;6801;53.018;11.560;2023-04-25T05:00:12;15.27;;;1.98;;
13457;SDS011;6801;53.018;11.560;2023-04-25T05:02:59;15.70;;;2.13;;
13457;SDS011;6801;53.018;11.560;2023-04-25T05:05:46;14.35;;;3.00;;
13457;SDS011;6801;53.018;11.560;2023-04-25T05:08:32;12.52;;;2.40;;
13457;SDS011;6801;53.018;11.560;2023-04-25T05:11:12;12.50;;;2.53;;
13457;SDS011;6801;53.018;11.560;2023-04-25T05:13:56;17.15;;;3.22;;
13457;SDS011;6801;53.018;11.560;2023-04-25T05:16:47;12.32;;;2.58;;
13457;SDS011;6801;53.018;11.560;2023-04-25T05:19:39;13.30;;;3.25;;
13457;SDS011;6801;53.018;11.560;2023-04-25T05:22:39;16.02;;;3.00;;
13457;SDS011;6801;53.018;11.560;2023-04-25T05:25:11;11.98;;;2.70;;
13457;SDS011;6801;53.018;11.560;2023-04-25T05:27:54;15.95;;;2.85;;
13457;SDS011;6801;53.018;11.560;2023-04-25T05:30:39;15.52;;;3.78;;
13457;SDS011;6801;53.018;11.560;2023-04-25T05:33:11;18.13;;;3.03;;
13457;SDS011;6801;53.018;11.560;2023-04-25T05:35:38;15.70;;;3.28;;
13457;SDS011;6801;53.018;11.560;2023-04-25T05:38:05;15.77;;;2.92;;
13457;SDS011;6801;53.018;11.560;2023-04-25T05:41:07;11.15;;;2.45;;
13457;SDS011;6801;53.018;11.560;2023-04-25T05:43:58;18.23;;;3.00;;
13457;SDS011;6801;53.018;11.560;2023-04-25T05:46:40;15.25;;;3.00;;
13457;SDS011;6801;53.018;11.560;2023-04-25T05:49:28;13.57;;;2.20;;
13457;SDS011;6801;53.018;11.560;2023-04-25T05:52:04;15.48;;;2.85;;
13457;SDS011;6801;53.018;11.560;2023-04-25T05:54:47;13.60;;;2.42;;
13457;SDS011;6801;53.018;11.560;2023-04-25T05:57:21;12.82;;;2.25;;
13457;SDS011;6801;53.018;11.560;2023-04-25T05:59:48;14.35;;;2.08;;
13457;SDS011;6801;53.018;11.560;2023-04-25T06:02:16;8.98;;;2.88;;
13457;SDS011;6801;53.018;11.560;2023-04-25T06:04:45;12.27;;;2.50;;
13457;SDS011;6801;53.018;11.560;2023-04-25T06:07:11;15.95;;;2.55;;
13457;SDS011;6801;53.018;11.560;2023-04-25T06:09:39;13.00;;;2.65;;
13457;SDS011;6801;53.018;11.560;2023-04-25T06:12:06;8.82;;;1.35;;
13457;SDS011;6801;53.018;11.560;2023-04-25T06:14:33;11.82;;;2.42;;
13457;SDS011;6801;53.018;11.560;2023-04-25T06:17:00;15.63;;;2.58;;
13457;SDS011;6801;53.018;11.560;2023-04-25T06:19:31;17.23;;;2.88;;
13457;SDS011;6801;53.018;11.560;2023-04-25T06:22:00;16.73;;;2.17;;
13457;SDS011;6801;53.018;11.560;2023-04-25T06:26:56;13.43;;;2.90;;
13457;SDS011;6801;53.018;11.560;2023-04-25T06:29:23;15.05;;;2.72;;
13457;SDS011;6801;53.018;11.560;2023-04-25T06:31:50;19.08;;;3.10;;
13457;SDS011;6801;53.018;11.560;2023-04-25T06:34:17;10.32;;;1.38;;
13457;SDS011;6801;53.018;11.560;2023-04-25T06:36:44;13.05;;;2.83;;
13457;SDS011;6801;53.018;11.560;2023-04-25T06:39:15;11.98;;;2.08;;
13457;SDS011;6801;53.018;11.560;2023-04-25T06:41:42;10.60;;;1.58;;
13457;SDS011;6801;53.018;11.560;2023-04-25T06:44:29;10.90;;;1.88;;
13457;SDS011;6801;53.018;11.560;2023-04-25T06:46:56;17.38;;;3.28;;
13457;SDS011;6801;53.018;11.560;2023-04-25T06:49:23;26.77;;;2.65;;
13457;SDS011;6801;53.018;11.560;2023-04-25T06:51:50;10.13;;;2.47;;
13457;SDS011;6801;53.018;11.560;2023-04-25T06:54:19;15.68;;;2.28;;
13457;SDS011;6801;53.018;11.560;2023-04-25T06:56:55;12.40;;;2.10;;
13457;SDS011;6801;53.018;11.560;2023-04-25T06:59:22;9.27;;;1.77;;
13457;SDS011;6801;53.018;11.560;2023-04-25T07:01:50;14.18;;;1.95;;
13457;SDS011;6801;53.018;11.560;2023-04-25T07:04:20;11.27;;;1.48;;
13457;SDS011;6801;53.018;11.560;2023-04-25T07:06:57;13.93;;;2.13;;
13457;SDS011;6801;53.018;11.560;2023-04-25T07:09:41;11.60;;;2.25;;
13457;SDS011;6801;53.018;11.560;2023-04-25T07:12:08;5.38;;;0.90;;
13457;SDS011;6801;53.018;11.560;2023-04-25T07:14:35;8.80;;;2.05;;
13457;SDS011;6801;53.018;11.560;2023-04-25T07:17:02;8.23;;;1.02;;
13457;SDS011;6801;53.018;11.560;2023-04-25T07:19:32;11.73;;;2.00;;
13457;SDS011;6801;53.018;11.560;2023-04-25T07:22:01;8.93;;;2.28;;
13457;SDS011;6801;53.018;11.560;2023-04-25T07:24:28;7.53;;;1.20;;
13457;SDS011;6801;53.018;11.560;2023-04-25T07:26:57;11.80;;;1.90;;
13457;SDS011;6801;53.018;11.560;2023-04-25T07:29:39;9.68;;;1.52;;
13457;SDS011;6801;53.018;11.560;2023-04-25T07:32:07;6.38;;;1.10;;
13457;SDS011;6801;53.018;11.560;2023-04-25T07:34:35;11.95;;;1.70;;
13457;SDS011;6801;53.018;11.560;2023-04-25T07:37:04;9.60;;;1.85;;
13457;SDS011;6801;53.018;11.560;2023-04-25T07:39:38;8.52;;;1.40;;
13457;SDS011;6801;53.018;11.560;2023-04-25T07:42:06;7.75;;;1.52;;
13457;SDS011;6801;53.018;11.560;2023-04-25T07:44:34;6.07;;;1.35;;
13457;SDS011;6801;53.018;11.560;2023-04-25T07:47:04;10.68;;;1.65;;
13457;SDS011;6801;53.018;11.560;2023-04-25T07:49:33;7.88;;;1.65;;
13457;SDS011;6801;53.018;11.560;2023-04-25T07:52:00;9.80;;;1.02;;
13457;SDS011;6801;53.018;11.560;2023-04-25T07:54:28;8.20;;;1.17;;
13457;SDS011;6801;53.018;11.560;2023-04-25T07:57:01;8.23;;;1.83;;
13457;SDS011;6801;53.018;11.560;2023-04-25T07:59:31;6.80;;;1.92;;
13457;SDS011;6801;53.018;11.560;2023-04-25T08:02:00;9.75;;;3.20;;
13457;SDS011;6801;53.018;11.560;2023-04-25T08:04:28;10.93;;;1.95;;
13457;SDS011;6801;53.018;11.560;2023-04-25T08:07:00;9.18;;;2.17;;
13457;SDS011;6801;53.018;11.560;2023-04-25T08:09:31;8.80;;;1.75;;
13457;SDS011;6801;53.018;11.560;2023-04-25T08:12:01;8.05;;;1.42;;
13457;SDS011;6801;53.018;11.560;2023-04-25T08:14:32;10.27;;;2.13;;
13457;SDS011;6801;53.018;11.560;2023-04-25T08:17:03;5.38;;;1.15;;
13457;SDS011;6801;53.018;11.560;2023-04-25T08:19:31;10.43;;;2.10;;
13457;SDS011;6801;53.018;11.560;2023-04-25T08:21:58;10.20;;;1.98;;
13457;SDS011;6801;53.018;11.560;2023-04-25T08:24:34;10.80;;;1.73;;
13457;SDS011;6801;53.018;11.560;2023-04-25T08:27:02;8.77;;;1.30;;
13457;SDS011;6801;53.018;11.560;2023-04-25T08:29:30;11.25;;;2.30;;
13457;SDS011;6801;53.018;11.560;2023-04-25T08:31:58;6.63;;;1.58;;
13457;SDS011;6801;53.018;11.560;2023-04-25T08:34:25;14.13;;;1.90;;
13457;SDS011;6801;53.018;11.560;2023-04-25T08:36:52;9.63;;;1.23;;
13457;SDS011;6801;53.018;11.560;2023-04-25T08:39:29;10.80;;;1.67;;
13457;SDS011;6801;53.018;11.560;2023-04-25T08:42:15;9.10;;;1.90;;
13457;SDS011;6801;53.018;11.560;2023-04-25T08:44:42;7.57;;;1.38;;
13457;SDS011;6801;53.018;11.560;2023-04-25T08:47:12;7.35;;;2.53;;
13457;SDS011;6801;53.018;11.560;2023-04-25T08:49:44;10.07;;;1.90;;
13457;SDS011;6801;53.018;11.560;2023-04-25T08:52:13;9.13;;;1.83;;
13457;SDS011;6801;53.018;11.560;2023-04-25T08:54:41;7.90;;;1.65;;
13457;SDS011;6801;53.018;11.560;2023-04-25T08:57:13;5.10;;;1.25;;
13457;SDS011;6801;53.018;11.560;2023-04-25T08:59:41;10.07;;;1.60;;
13457;SDS011;6801;53.018;11.560;2023-04-25T09:02:12;9.80;;;1.95;;
13457;SDS011;6801;53.018;11.560;2023-04-25T09:04:44;8.55;;;1.50;;
13457;SDS011;6801;53.018;11.560;2023-04-25T09:07:12;10.02;;;1.85;;
13457;SDS011;6801;53.018;11.560;2023-04-25T09:09:41;9.57;;;1.88;;
13457;SDS011;6801;53.018;11.560;2023-04-25T09:12:08;12.57;;;2.58;;
13457;SDS011;6801;53.018;11.560;2023-04-25T09:14:35;5.53;;;1.33;;
13457;SDS011;6801;53.018;11.560;2023-04-25T09:17:07;7.00;;;1.45;;
13457;SDS011;6801;53.018;11.560;2023-04-25T09:19:41;7.88;;;1.60;;
13457;SDS011;6801;53.018;11.560;2023-04-25T09:22:17;8.52;;;1.90;;
13457;SDS011;6801;53.018;11.560;2023-04-25T09:24:46;8.68;;;1.65;;
13457;SDS011;6801;53.018;11.560;2023-04-25T09:27:18;13.52;;;2.60;;
13457;SDS011;6801;53.018;11.560;2023-04-25T09:29:58;8.25;;;1.70;;
13457;SDS011;6801;53.018;11.560;2023-04-25T09:32:27;6.50;;;1.40;;
13457;SDS011;6801;53.018;11.560;2023-04-25T09:34:57;8.93;;;1.55;;
13457;SDS011;6801;53.018;11.560;2023-04-25T09:37:27;9.13;;;2.03;;
13457;SDS011;6801;53.018;11.560;2023-04-25T09:40:33;13.43;;;1.40;;
13457;SDS011;6801;53.018;11.560;2023-04-25T09:43:10;8.45;;;1.58;;
13457;SDS011;6801;53.018;11.560;2023-04-25T09:45:41;11.00;;;1.65;;
13457;SDS011;6801;53.018;11.560;2023-04-25T09:48:11;9.65;;;1.67;;
13457;SDS011;6801;53.018;11.560;2023-04-25T09:50:44;5.95;;;1.30;;
13457;SDS011;6801;53.018;11.560;2023-04-25T09:53:12;9.32;;;1.92;;
13457;SDS011;6801;53.018;11.560;2023-04-25T09:56:03;11.07;;;1.95;;
13457;SDS011;6801;53.018;11.560;2023-04-25T09:58:32;8.90;;;1.63;;
13457;SDS011;6801;53.018;11.560;2023-04-25T10:01:00;7.20;;;1.67;;
13457;SDS011;6801;53.018;11.560;2023-04-25T10:03:38;8.27;;;1.80;;
13457;SDS011;6801;53.018;11.560;2023-04-25T10:06:28;6.95;;;0.93;;
13457;SDS011;6801;53.018;11.560;2023-04-25T10:08:56;7.78;;;1.42;;
13457;SDS011;6801;53.018;11.560;2023-04-25T10:11:23;6.90;;;1.65;;
13457;SDS011;6801;53.018;11.560;2023-04-25T10:13:52;7.22;;;1.35;;
13457;SDS011;6801;53.018;11.560;2023-04-25T10:16:19;7.25;;;1.15;;
13457;SDS011;6801;53.018;11.560;2023-04-25T10:18:47;8.48;;;1.52;;
13457;SDS011;6801;53.018;11.560;2023-04-25T10:21:16;7.40;;;1.27;;
13457;SDS011;6801;53.018;11.560;2023-04-25T10:23:46;9.05;;;1.08;;
13457;SDS011;6801;53.018;11.560;2023-04-25T10:26:14;6.05;;;1.10;;
13457;SDS011;6801;53.018;11.560;2023-04-25T10:31:24;4.05;;;1.00;;
13457;SDS011;6801;53.018;11.560;2023-04-25T10:33:51;4.18;;;1.10;;
13457;SDS011;6801;53.018;11.560;2023-04-25T10:36:19;3.97;;;0.60;;
13457;SDS011;6801;53.018;11.560;2023-04-25T10:38:49;5.13;;;0.85;;
13457;SDS011;6801;53.018;11.560;2023-04-25T10:41:17;6.65;;;1.60;;
13457;SDS011;6801;53.018;11.560;2023-04-25T10:43:45;4.75;;;1.42;;
13457;SDS011;6801;53.018;11.560;2023-04-25T10:46:14;7.78;;;1.20;;
13457;SDS011;6801;53.018;11.560;2023-04-25T10:48:46;4.47;;;1.20;;
13457;SDS011;6801;53.018;11.560;2023-04-25T10:51:18;8.75;;;1.38;;
13457;SDS011;6801;53.018;11.560;2023-04-25T10:53:47;7.32;;;1.10;;
13457;SDS011;6801;53.018;11.560;2023-04-25T10:56:26;6.38;;;1.20;;
13457;SDS011;6801;53.018;11.560;2023-04-25T10:59:02;6.95;;;1.05;;
13457;SDS011;6801;53.018;11.560;2023-04-25T11:01:35;3.15;;;0.63;;
13457;SDS011;6801;53.018;11.560;2023-04-25T11:04:03;2.83;;;0.70;;
13457;SDS011;6801;53.018;11.560;2023-04-25T11:06:32;7.57;;;1.10;;
13457;SDS011;6801;53.018;11.560;2023-04-25T11:09:11;3.08;;;0.75;;
13457;SDS011;6801;53.018;11.560;2023-04-25T11:11:39;4.90;;;0.95;;
13457;SDS011;6801;53.018;11.560;2023-04-25T11:14:06;6.25;;;1.33;;
13457;SDS011;6801;53.018;11.560;2023-04-25T11:16:33;5.65;;;1.02;;
13457;SDS011;6801;53.018;11.560;2023-04-25T11:19:01;6.35;;;0.90;;
13457;SDS011;6801;53.018;11.560;2023-04-25T11:21:29;7.53;;;0.80;;
13457;SDS011;6801;53.018;11.560;2023-04-25T11:23:58;9.02;;;1.52;;
13457;SDS011;6801;53.018;11.560;2023-04-25T11:26:27;4.43;;;0.70;;
13457;SDS011;6801;53.018;11.560;2023-04-25T11:28:59;4.15;;;0.60;;
13457;SDS011;6801;53.018;11.560;2023-04-25T11:33:53;4.53;;;0.80;;
13457;SDS011;6801;53.018;11.560;2023-04-25T11:36:22;5.05;;;1.08;;
13457;SDS011;6801;53.018;11.560;2023-04-25T11:38:51;4.80;;;0.90;;
13457;SDS011;6801;53.018;11.560;2023-04-25T11:41:19;8.98;;;0.95;;
13457;SDS011;6801;53.018;11.560;2023-04-25T11:43:48;4.53;;;0.60;;
13457;SDS011;6801;53.018;11.560;2023-04-25T11:46:17;3.35;;;0.73;;
13457;SDS011;6801;53.018;11.560;2023-04-25T11:48:45;3.75;;;0.88;;
13457;SDS011;6801;53.018;11.560;2023-04-25T11:51:12;5.43;;;0.98;;
13457;SDS011;6801;53.018;11.560;2023-04-25T11:53:40;3.60;;;0.63;;
13457;SDS011;6801;53.018;11.560;2023-04-25T11:56:09;6.60;;;1.17;;
13457;SDS011;6801;53.018;11.560;2023-04-25T12:01:27;4.70;;;0.80;;
13457;SDS011;6801;53.018;11.560;2023-04-25T12:03:55;5.50;;;0.85;;
13457;SDS011;6801;53.018;11.560;2023-04-25T12:06:25;8.27;;;1.23;;
13457;SDS011;6801;53.018;11.560;2023-04-25T12:09:00;6.50;;;0.73;;
13457;SDS011;6801;53.018;11.560;2023-04-25T12:11:28;5.32;;;0.70;;
13457;SDS011;6801;53.018;11.560;2023-04-25T12:14:02;5.25;;;1.23;;
13457;SDS011;6801;53.018;11.560;2023-04-25T12:16:39;4.95;;;0.85;;
13457;SDS011;6801;53.018;11.560;2023-04-25T12:19:06;4.88;;;0.65;;
13457;SDS011;6801;53.018;11.560;2023-04-25T12:21:33;5.07;;;0.60;;
13457;SDS011;6801;53.018;11.560;2023-04-25T12:24:09;5.03;;;0.60;;
13457;SDS011;6801;53.018;11.560;2023-04-25T12:26:46;4.00;;;0.63;;
13457;SDS011;6801;53.018;11.560;2023-04-25T12:29:21;2.47;;;0.70;;
13457;SDS011;6801;53.018;11.560;2023-04-25T12:31:50;4.90;;;0.68;;
13457;SDS011;6801;53.018;11.560;2023-04-25T12:34:18;5.45;;;0.93;;
13457;SDS011;6801;53.018;11.560;2023-04-25T12:36:45;8.23;;;1.23;;
13457;SDS011;6801;53.018;11.560;2023-04-25T12:39:15;4.47;;;0.95;;
13457;SDS011;6801;53.018;11.560;2023-04-25T12:44:10;5.47;;;0.88;;
13457;SDS011;6801;53.018;11.560;2023-04-25T12:46:39;5.32;;;0.60;;
13457;SDS011;6801;53.018;11.560;2023-04-25T12:49:07;5.20;;;0.60;;
13457;SDS011;6801;53.018;11.560;2023-04-25T12:51:34;4.25;;;0.75;;
13457;SDS011;6801;53.018;11.560;2023-04-25T12:54:02;3.25;;;0.70;;
13457;SDS011;6801;53.018;11.560;2023-04-25T12:56:30;6.60;;;0.65;;
13457;SDS011;6801;53.018;11.560;2023-04-25T12:58:57;3.13;;;0.60;;
13457;SDS011;6801;53.018;11.560;2023-04-25T13:01:24;2.20;;;0.50;;
13457;SDS011;6801;53.018;11.560;2023-04-25T13:03:53;3.80;;;0.70;;
13457;SDS011;6801;53.018;11.560;2023-04-25T13:06:21;5.75;;;0.60;;
13457;SDS011;6801;53.018;11.560;2023-04-25T13:08:48;3.47;;;0.65;;
13457;SDS011;6801;53.018;11.560;2023-04-25T13:11:15;3.70;;;0.75;;
13457;SDS011;6801;53.018;11.560;2023-04-25T13:13:43;3.75;;;0.65;;
13457;SDS011;6801;53.018;11.560;2023-04-25T13:16:10;3.75;;;0.68;;
13457;SDS011;6801;53.018;11.560;2023-04-25T13:18:39;2.35;;;0.70;;
13457;SDS011;6801;53.018;11.560;2023-04-25T13:21:08;5.72;;;0.70;;
13457;SDS011;6801;53.018;11.560;2023-04-25T13:23:35;7.57;;;1.35;;
13457;SDS011;6801;53.018;11.560;2023-04-25T13:26:02;2.85;;;0.55;;
13457;SDS011;6801;53.018;11.560;2023-04-25T13:28:29;5.88;;;0.63;;
13457;SDS011;6801;53.018;11.560;2023-04-25T13:30:56;4.15;;;0.60;;
13457;SDS011;6801;53.018;11.560;2023-04-25T13:33:24;5.38;;;0.70;;
13457;SDS011;6801;53.018;11.560;2023-04-25T13:35:52;3.72;;;1.05;;
13457;SDS011;6801;53.018;11.560;2023-04-25T13:38:23;5.65;;;0.47;;
13457;SDS011;6801;53.018;11.560;2023-04-25T13:40:50;3.80;;;0.70;;
13457;SDS011;6801;53.018;11.560;2023-04-25T13:43:18;3.22;;;0.50;;
13457;SDS011;6801;53.018;11.560;2023-04-25T13:45:46;6.85;;;0.70;;
13457;SDS011;6801;53.018;11.560;2023-04-25T13:48:14;2.35;;;0.52;;
13457;SDS011;6801;53.018;11.560;2023-04-25T13:50:40;4.63;;;0.85;;
13457;SDS011;6801;53.018;11.560;2023-04-25T13:53:07;3.90;;;0.75;;
13457;SDS011;6801;53.018;11.560;2023-04-25T13:55:36;3.75;;;0.57;;
13457;SDS011;6801;53.018;11.560;2023-04-25T13:58:03;4.63;;;0.55;;
13457;SDS011;6801;53.018;11.560;2023-04-25T14:00:33;5.00;;;0.90;;
13457;SDS011;6801;53.018;11.560;2023-04-25T14:03:02;3.72;;;0.40;;
13457;SDS011;6801;53.018;11.560;2023-04-25T14:05:32;3.72;;;0.50;;
13457;SDS011;6801;53.018;11.560;2023-04-25T14:08:03;3.88;;;0.65;;
13457;SDS011;6801;53.018;11.560;2023-04-25T14:10:31;5.40;;;0.95;;
13457;SDS011;6801;53.018;11.560;2023-04-25T14:12:59;4.60;;;0.93;;
13457;SDS011;6801;53.018;11.560;2023-04-25T14:15:28;5.37;;;0.83;;
13457;SDS011;6801;53.018;11.560;2023-04-25T14:17:56;4.82;;;0.65;;
13457;SDS011;6801;53.018;11.560;2023-04-25T14:20:23;2.40;;;0.60;;
13457;SDS011;6801;53.018;11.560;2023-04-25T14:22:50;5.60;;;0.57;;
13457;SDS011;6801;53.018;11.560;2023-04-25T14:25:19;3.90;;;0.60;;
13457;SDS011;6801;53.018;11.560;2023-04-25T14:27:45;4.65;;;0.43;;
13457;SDS011;6801;53.018;11.560;2023-04-25T14:30:16;1.70;;;0.60;;
13457;SDS011;6801;53.018;11.560;2023-04-25T14:32:43;7.55;;;0.70;;
13457;SDS011;6801;53.018;11.560;2023-04-25T14:35:11;4.57;;;0.45;;
13457;SDS011;6801;53.018;11.560;2023-04-25T14:37:38;6.53;;;0.40;;
13457;SDS011;6801;53.018;11.560;2023-04-25T14:40:06;5.47;;;0.65;;
13457;SDS011;6801;53.018;11.560;2023-04-25T14:42:35;3.92;;;0.50;;
13457;SDS011;6801;53.018;11.560;2023-04-25T14:45:02;4.57;;;0.60;;
13457;SDS011;6801;53.018;11.560;2023-04-25T14:47:32;6.82;;;0.80;;
13457;SDS011;6801;53.018;11.560;2023-04-25T14:49:59;2.95;;;0.60;;
13457;SDS011;6801;53.018;11.560;2023-04-25T14:52:27;4.43;;;0.93;;
13457;SDS011;6801;53.018;11.560;2023-04-25T14:54:53;4.45;;;0.50;;
13457;SDS011;6801;53.018;11.560;2023-04-25T14:57:20;3.08;;;0.40;;
13457;SDS011;6801;53.018;11.560;2023-04-25T14:59:47;4.22;;;0.82;;
13457;SDS011;6801;53.018;11.560;2023-04-25T15:02:14;1.63;;;0.63;;
13457;SDS011;6801;53.018;11.560;2023-04-25T15:04:42;4.28;;;0.60;;
13457;SDS011;6801;53.018;11.560;2023-04-25T15:07:10;1.73;;;0.55;;
13457;SDS011;6801;53.018;11.560;2023-04-25T15:09:37;4.35;;;0.80;;
13457;SDS011;6801;53.018;11.560;2023-04-25T15:12:03;2.03;;;0.60;;
13457;SDS011;6801;53.018;11.560;2023-04-25T15:14:31;5.38;;;1.05;;
13457;SDS011;6801;53.018;11.560;2023-04-25T15:16:59;4.93;;;0.73;;
13457;SDS011;6801;53.018;11.560;2023-04-25T15:19:26;2.80;;;0.60;;